sensor_id;sensor_type;location;lat;lon;timestamp;P1;durP1;ratioP1;P2;durP2;ratioP2
13795;SDS011;40911;51.552;9.874;2022-09-09T00:02:08;3.53;;;1.88;;
13795;SDS011;40911;51.552;9.874;2022-09-09T00:04:38;2.22;;;1.80;;
13795;SDS011;40911;51.552;9.874;2022-09-09T00:07:03;2.20;;;1.70;;
13795;SDS011;40911;51.552;9.874;2022-09-09T00:09:30;3.80;;;1.77;;
13795;SDS011;40911;51.552;9.874;2022-09-09T00:11:59;3.22;;;1.95;;
13795;SDS011;40911;51.552;9.874;2022-09-09T00:14:26;2.10;;;1.90;;
13795;SDS011;40911;51.552;9.874;2022-09-09T00:16:55;4.45;;;2.00;;
13795;SDS011;40911;51.552;9.874;2022-09-09T00:19:22;1.95;;;1.73;;
13795;SDS011;40911;51.552;9.874;2022-09-09T00:21:52;3.28;;;1.73;;
13795;SDS011;40911;51.552;9.874;2022-09-09T00:24:24;2.58;;;1.83;;
13795;SDS011;40911;51.552;9.874;2022-09-09T00:26:51;3.20;;;1.90;;
13795;SDS011;40911;51.552;9.874;2022-09-09T00:29:20;3.83;;;1.85;;
13795;SDS011;40911;51.552;9.874;2022-09-09T00:31:50;2.70;;;1.88;;
13795;SDS011;40911;51.552;9.874;2022-09-09T00:34:16;2.05;;;1.60;;
13795;SDS011;40911;51.552;9.874;2022-09-09T00:36:43;3.53;;;1.70;;
13795;SDS011;40911;51.552;9.874;2022-09-09T00:39:09;2.95;;;1.83;;
13795;SDS011;40911;51.552;9.874;2022-09-09T00:41:39;4.47;;;1.95;;
13795;SDS011;40911;51.552;9.874;2022-09-09T00:44:16;2.13;;;1.80;;
13795;SDS011;40911;51.552;9.874;2022-09-09T00:46:49;3.47;;;1.80;;
13795;SDS011;40911;51.552;9.874;2022-09-09T00:49:23;3.90;;;1.70;;
13795;SDS011;40911;51.552;9.874;2022-09-09T00:52:02;2.05;;;1.83;;
13795;SDS011;40911;51.552;9.874;2022-09-09T00:54:36;2.22;;;1.80;;
13795;SDS011;40911;51.552;9.874;2022-09-09T00:57:12;3.67;;;1.60;;
13795;SDS011;40911;51.552;9.874;2022-09-09T00:59:42;3.75;;;2.00;;
13795;SDS011;40911;51.552;9.874;2022-09-09T01:02:09;4.25;;;2.25;;
13795;SDS011;40911;51.552;9.874;2022-09-09T01:04:37;2.05;;;1.80;;
13795;SDS011;40911;51.552;9.874;2022-09-09T01:07:02;3.30;;;2.20;;
13795;SDS011;40911;51.552;9.874;2022-09-09T01:09:29;3.13;;;1.70;;
13795;SDS011;40911;51.552;9.874;2022-09-09T01:12:01;4.63;;;1.98;;
13795;SDS011;40911;51.552;9.874;2022-09-09T01:14:32;2.13;;;1.83;;
13795;SDS011;40911;51.552;9.874;2022-09-09T01:17:02;4.03;;;2.10;;
13795;SDS011;40911;51.552;9.874;2022-09-09T01:19:33;4.10;;;1.70;;
13795;SDS011;40911;51.552;9.874;2022-09-09T01:22:09;3.05;;;1.90;;
13795;SDS011;40911;51.552;9.874;2022-09-09T01:24:38;5.60;;;2.22;;
13795;SDS011;40911;51.552;9.874;2022-09-09T01:27:05;7.88;;;2.10;;
13795;SDS011;40911;51.552;9.874;2022-09-09T01:29:29;4.95;;;2.22;;
13795;SDS011;40911;51.552;9.874;2022-09-09T01:31:52;5.05;;;2.03;;
13795;SDS011;40911;51.552;9.874;2022-09-09T01:34:15;6.28;;;2.03;;
13795;SDS011;40911;51.552;9.874;2022-09-09T01:36:38;3.67;;;2.13;;
13795;SDS011;40911;51.552;9.874;2022-09-09T01:39:04;3.83;;;1.80;;
13795;SDS011;40911;51.552;9.874;2022-09-09T01:41:26;4.18;;;2.00;;
13795;SDS011;40911;51.552;9.874;2022-09-09T01:43:49;10.13;;;2.30;;
13795;SDS011;40911;51.552;9.874;2022-09-09T01:46:11;4.32;;;2.00;;
13795;SDS011;40911;51.552;9.874;2022-09-09T01:48:34;4.65;;;2.05;;
13795;SDS011;40911;51.552;9.874;2022-09-09T01:50:56;3.97;;;2.00;;
13795;SDS011;40911;51.552;9.874;2022-09-09T01:53:19;6.70;;;2.15;;
13795;SDS011;40911;51.552;9.874;2022-09-09T01:55:44;4.93;;;2.00;;
13795;SDS011;40911;51.552;9.874;2022-09-09T01:58:17;4.72;;;2.13;;
13795;SDS011;40911;51.552;9.874;2022-09-09T02:00:50;3.70;;;2.17;;
13795;SDS011;40911;51.552;9.874;2022-09-09T02:03:21;5.05;;;2.28;;
13795;SDS011;40911;51.552;9.874;2022-09-09T02:05:49;7.43;;;2.30;;
13795;SDS011;40911;51.552;9.874;2022-09-09T02:08:19;6.15;;;2.08;;
13795;SDS011;40911;51.552;9.874;2022-09-09T02:10:45;8.48;;;2.08;;
13795;SDS011;40911;51.552;9.874;2022-09-09T02:13:16;3.83;;;2.20;;
13795;SDS011;40911;51.552;9.874;2022-09-09T02:15:42;5.10;;;2.13;;
13795;SDS011;40911;51.552;9.874;2022-09-09T02:18:09;4.70;;;1.95;;
13795;SDS011;40911;51.552;9.874;2022-09-09T02:20:33;3.70;;;2.20;;
13795;SDS011;40911;51.552;9.874;2022-09-09T02:22:58;5.25;;;2.38;;
13795;SDS011;40911;51.552;9.874;2022-09-09T02:25:23;5.30;;;2.30;;
13795;SDS011;40911;51.552;9.874;2022-09-09T02:27:48;5.57;;;2.20;;
13795;SDS011;40911;51.552;9.874;2022-09-09T02:30:12;4.20;;;2.17;;
13795;SDS011;40911;51.552;9.874;2022-09-09T02:32:35;4.22;;;2.20;;
13795;SDS011;40911;51.552;9.874;2022-09-09T02:34:59;4.10;;;2.20;;
13795;SDS011;40911;51.552;9.874;2022-09-09T02:37:27;6.78;;;2.03;;
13795;SDS011;40911;51.552;9.874;2022-09-09T02:39:56;3.72;;;2.20;;
13795;SDS011;40911;51.552;9.874;2022-09-09T02:42:18;7.57;;;2.40;;
13795;SDS011;40911;51.552;9.874;2022-09-09T02:44:40;4.82;;;2.28;;
13795;SDS011;40911;51.552;9.874;2022-09-09T02:47:09;4.35;;;2.25;;
13795;SDS011;40911;51.552;9.874;2022-09-09T02:49:51;3.63;;;2.30;;
13795;SDS011;40911;51.552;9.874;2022-09-09T02:52:21;4.57;;;2.30;;
13795;SDS011;40911;51.552;9.874;2022-09-09T02:54:51;8.10;;;2.13;;
13795;SDS011;40911;51.552;9.874;2022-09-09T02:57:19;7.40;;;2.40;;
13795;SDS011;40911;51.552;9.874;2022-09-09T02:59:44;5.72;;;1.90;;
13795;SDS011;40911;51.552;9.874;2022-09-09T03:02:07;5.03;;;2.10;;
13795;SDS011;40911;51.552;9.874;2022-09-09T03:04:30;7.15;;;2.25;;
13795;SDS011;40911;51.552;9.874;2022-09-09T03:06:52;4.82;;;2.08;;
13795;SDS011;40911;51.552;9.874;2022-09-09T03:09:16;8.48;;;2.50;;
13795;SDS011;40911;51.552;9.874;2022-09-09T03:11:38;4.65;;;2.15;;
13795;SDS011;40911;51.552;9.874;2022-09-09T03:14:00;7.88;;;2.00;;
13795;SDS011;40911;51.552;9.874;2022-09-09T03:16:23;6.72;;;2.10;;
13795;SDS011;40911;51.552;9.874;2022-09-09T03:18:45;5.43;;;2.00;;
13795;SDS011;40911;51.552;9.874;2022-09-09T03:21:07;5.05;;;2.15;;
13795;SDS011;40911;51.552;9.874;2022-09-09T03:23:29;5.18;;;2.10;;
13795;SDS011;40911;51.552;9.874;2022-09-09T03:25:52;9.50;;;2.30;;
13795;SDS011;40911;51.552;9.874;2022-09-09T03:28:17;4.32;;;2.20;;
13795;SDS011;40911;51.552;9.874;2022-09-09T03:30:39;3.83;;;2.20;;
13795;SDS011;40911;51.552;9.874;2022-09-09T03:33:01;4.47;;;2.30;;
13795;SDS011;40911;51.552;9.874;2022-09-09T03:35:24;5.93;;;2.20;;
13795;SDS011;40911;51.552;9.874;2022-09-09T03:37:46;4.60;;;2.30;;
13795;SDS011;40911;51.552;9.874;2022-09-09T03:40:08;6.82;;;2.20;;
13795;SDS011;40911;51.552;9.874;2022-09-09T03:42:32;5.45;;;2.10;;
13795;SDS011;40911;51.552;9.874;2022-09-09T03:44:55;4.40;;;1.85;;
13795;SDS011;40911;51.552;9.874;2022-09-09T03:47:18;6.85;;;2.17;;
13795;SDS011;40911;51.552;9.874;2022-09-09T03:49:41;7.68;;;2.40;;
13795;SDS011;40911;51.552;9.874;2022-09-09T03:54:25;5.95;;;2.33;;
13795;SDS011;40911;51.552;9.874;2022-09-09T03:56:47;3.10;;;2.03;;
13795;SDS011;40911;51.552;9.874;2022-09-09T04:01:32;6.97;;;2.08;;
13795;SDS011;40911;51.552;9.874;2022-09-09T04:06:18;8.55;;;2.40;;
13795;SDS011;40911;51.552;9.874;2022-09-09T04:08:41;5.80;;;2.47;;
13795;SDS011;40911;51.552;9.874;2022-09-09T04:11:03;4.70;;;2.30;;
13795;SDS011;40911;51.552;9.874;2022-09-09T04:13:26;5.18;;;2.22;;
13795;SDS011;40911;51.552;9.874;2022-09-09T04:18:13;5.30;;;2.20;;
13795;SDS011;40911;51.552;9.874;2022-09-09T04:22:57;9.15;;;2.40;;
13795;SDS011;40911;51.552;9.874;2022-09-09T04:25:18;5.85;;;2.45;;
13795;SDS011;40911;51.552;9.874;2022-09-09T04:30:03;5.30;;;2.13;;
13795;SDS011;40911;51.552;9.874;2022-09-09T04:32:26;4.18;;;2.10;;
13795;SDS011;40911;51.552;9.874;2022-09-09T04:34:48;5.32;;;2.72;;
13795;SDS011;40911;51.552;9.874;2022-09-09T04:39:31;7.53;;;3.28;;
13795;SDS011;40911;51.552;9.874;2022-09-09T04:44:15;6.45;;;2.70;;
13795;SDS011;40911;51.552;9.874;2022-09-09T04:49:00;6.07;;;2.40;;
13795;SDS011;40911;51.552;9.874;2022-09-09T04:51:22;6.50;;;2.42;;
13795;SDS011;40911;51.552;9.874;2022-09-09T04:53:44;6.85;;;2.58;;
13795;SDS011;40911;51.552;9.874;2022-09-09T04:56:07;9.15;;;2.72;;
13795;SDS011;40911;51.552;9.874;2022-09-09T04:58:30;5.70;;;2.70;;
13795;SDS011;40911;51.552;9.874;2022-09-09T05:00:52;7.65;;;2.65;;
13795;SDS011;40911;51.552;9.874;2022-09-09T05:05:36;5.60;;;2.50;;
13795;SDS011;40911;51.552;9.874;2022-09-09T05:08:00;8.55;;;2.72;;
13795;SDS011;40911;51.552;9.874;2022-09-09T05:10:23;3.35;;;2.28;;
13795;SDS011;40911;51.552;9.874;2022-09-09T05:15:13;6.72;;;2.28;;
13795;SDS011;40911;51.552;9.874;2022-09-09T05:17:34;5.20;;;2.13;;
13795;SDS011;40911;51.552;9.874;2022-09-09T05:22:20;3.88;;;1.95;;
13795;SDS011;40911;51.552;9.874;2022-09-09T05:24:43;3.03;;;2.40;;
13795;SDS011;40911;51.552;9.874;2022-09-09T05:27:04;3.47;;;2.20;;
13795;SDS011;40911;51.552;9.874;2022-09-09T05:31:48;4.13;;;2.08;;
13795;SDS011;40911;51.552;9.874;2022-09-09T05:36:31;6.30;;;2.63;;
13795;SDS011;40911;51.552;9.874;2022-09-09T05:38:54;5.05;;;2.15;;
13795;SDS011;40911;51.552;9.874;2022-09-09T05:41:16;3.40;;;2.25;;
13795;SDS011;40911;51.552;9.874;2022-09-09T05:43:40;4.28;;;2.08;;
13795;SDS011;40911;51.552;9.874;2022-09-09T05:46:04;5.50;;;2.45;;
13795;SDS011;40911;51.552;9.874;2022-09-09T05:48:28;5.55;;;2.20;;
13795;SDS011;40911;51.552;9.874;2022-09-09T05:50:52;4.80;;;2.38;;
13795;SDS011;40911;51.552;9.874;2022-09-09T05:53:15;3.10;;;2.08;;
13795;SDS011;40911;51.552;9.874;2022-09-09T05:55:38;5.15;;;2.50;;
13795;SDS011;40911;51.552;9.874;2022-09-09T05:58:00;6.45;;;2.63;;
13795;SDS011;40911;51.552;9.874;2022-09-09T06:00:22;4.85;;;2.30;;
13795;SDS011;40911;51.552;9.874;2022-09-09T06:02:50;5.22;;;2.50;;
13795;SDS011;40911;51.552;9.874;2022-09-09T06:05:12;5.00;;;2.45;;
13795;SDS011;40911;51.552;9.874;2022-09-09T06:07:35;6.32;;;2.30;;
13795;SDS011;40911;51.552;9.874;2022-09-09T06:09:57;5.07;;;2.20;;
13795;SDS011;40911;51.552;9.874;2022-09-09T06:14:42;4.07;;;2.20;;
13795;SDS011;40911;51.552;9.874;2022-09-09T06:19:25;4.82;;;2.42;;
13795;SDS011;40911;51.552;9.874;2022-09-09T06:24:10;3.35;;;1.98;;
13795;SDS011;40911;51.552;9.874;2022-09-09T06:26:34;4.90;;;2.55;;
13795;SDS011;40911;51.552;9.874;2022-09-09T06:28:59;6.63;;;2.30;;
13795;SDS011;40911;51.552;9.874;2022-09-09T06:31:22;5.93;;;2.30;;
13795;SDS011;40911;51.552;9.874;2022-09-09T06:33:45;6.30;;;2.30;;
13795;SDS011;40911;51.552;9.874;2022-09-09T06:36:07;8.77;;;2.20;;
13795;SDS011;40911;51.552;9.874;2022-09-09T06:38:33;4.85;;;1.98;;
13795;SDS011;40911;51.552;9.874;2022-09-09T06:43:17;4.40;;;2.00;;
13795;SDS011;40911;51.552;9.874;2022-09-09T06:45:41;6.88;;;2.38;;
13795;SDS011;40911;51.552;9.874;2022-09-09T06:48:02;4.20;;;2.03;;
13795;SDS011;40911;51.552;9.874;2022-09-09T06:50:24;3.65;;;1.67;;
13795;SDS011;40911;51.552;9.874;2022-09-09T06:55:08;4.13;;;2.00;;
13795;SDS011;40911;51.552;9.874;2022-09-09T06:57:30;4.53;;;1.90;;
13795;SDS011;40911;51.552;9.874;2022-09-09T07:02:15;5.35;;;1.90;;
13795;SDS011;40911;51.552;9.874;2022-09-09T07:04:36;4.38;;;1.63;;
13795;SDS011;40911;51.552;9.874;2022-09-09T07:09:21;5.60;;;1.67;;
13795;SDS011;40911;51.552;9.874;2022-09-09T07:11:43;4.78;;;1.60;;
13795;SDS011;40911;51.552;9.874;2022-09-09T07:14:06;3.75;;;1.65;;
13795;SDS011;40911;51.552;9.874;2022-09-09T07:16:28;4.25;;;1.58;;
13795;SDS011;40911;51.552;9.874;2022-09-09T07:18:53;4.90;;;1.63;;
13795;SDS011;40911;51.552;9.874;2022-09-09T07:21:17;5.85;;;1.63;;
13795;SDS011;40911;51.552;9.874;2022-09-09T07:23:41;3.25;;;1.40;;
13795;SDS011;40911;51.552;9.874;2022-09-09T07:26:06;5.18;;;1.70;;
13795;SDS011;40911;51.552;9.874;2022-09-09T07:28:29;5.60;;;1.70;;
13795;SDS011;40911;51.552;9.874;2022-09-09T07:30:54;6.10;;;1.65;;
13795;SDS011;40911;51.552;9.874;2022-09-09T07:33:17;4.50;;;1.75;;
13795;SDS011;40911;51.552;9.874;2022-09-09T07:35:41;4.63;;;1.70;;
13795;SDS011;40911;51.552;9.874;2022-09-09T07:38:03;3.33;;;1.60;;
13795;SDS011;40911;51.552;9.874;2022-09-09T07:40:26;6.32;;;1.95;;
13795;SDS011;40911;51.552;9.874;2022-09-09T07:42:50;4.85;;;1.55;;
13795;SDS011;40911;51.552;9.874;2022-09-09T07:47:34;4.72;;;1.30;;
13795;SDS011;40911;51.552;9.874;2022-09-09T07:52:18;3.25;;;1.30;;
13795;SDS011;40911;51.552;9.874;2022-09-09T07:54:41;5.65;;;1.40;;
13795;SDS011;40911;51.552;9.874;2022-09-09T07:57:03;4.85;;;1.77;;
13795;SDS011;40911;51.552;9.874;2022-09-09T07:59:25;4.57;;;1.30;;
13795;SDS011;40911;51.552;9.874;2022-09-09T08:01:50;4.28;;;1.60;;
13795;SDS011;40911;51.552;9.874;2022-09-09T08:04:14;5.35;;;1.60;;
13795;SDS011;40911;51.552;9.874;2022-09-09T08:06:38;3.70;;;1.20;;
13795;SDS011;40911;51.552;9.874;2022-09-09T08:09:03;5.85;;;1.60;;
13795;SDS011;40911;51.552;9.874;2022-09-09T08:11:26;4.57;;;1.40;;
13795;SDS011;40911;51.552;9.874;2022-09-09T08:13:49;5.75;;;1.63;;
13795;SDS011;40911;51.552;9.874;2022-09-09T08:16:12;4.68;;;1.23;;
13795;SDS011;40911;51.552;9.874;2022-09-09T08:18:36;3.85;;;1.42;;
13795;SDS011;40911;51.552;9.874;2022-09-09T08:21:04;5.45;;;1.52;;
13795;SDS011;40911;51.552;9.874;2022-09-09T08:23:27;5.55;;;1.50;;
13795;SDS011;40911;51.552;9.874;2022-09-09T08:28:11;3.20;;;1.35;;
13795;SDS011;40911;51.552;9.874;2022-09-09T08:32:54;4.68;;;1.25;;
13795;SDS011;40911;51.552;9.874;2022-09-09T08:35:16;5.53;;;1.50;;
13795;SDS011;40911;51.552;9.874;2022-09-09T08:37:40;6.05;;;1.50;;
13795;SDS011;40911;51.552;9.874;2022-09-09T08:40:02;3.78;;;1.20;;
13795;SDS011;40911;51.552;9.874;2022-09-09T08:42:39;2.65;;;1.13;;
13795;SDS011;40911;51.552;9.874;2022-09-09T08:45:10;3.88;;;1.35;;
13795;SDS011;40911;51.552;9.874;2022-09-09T08:47:41;4.82;;;1.50;;
13795;SDS011;40911;51.552;9.874;2022-09-09T08:50:17;5.00;;;1.70;;
13795;SDS011;40911;51.552;9.874;2022-09-09T08:52:47;4.07;;;1.40;;
13795;SDS011;40911;51.552;9.874;2022-09-09T08:55:15;3.88;;;1.30;;
13795;SDS011;40911;51.552;9.874;2022-09-09T08:57:48;3.95;;;1.40;;
13795;SDS011;40911;51.552;9.874;2022-09-09T09:00:13;6.03;;;1.40;;
13795;SDS011;40911;51.552;9.874;2022-09-09T09:02:37;6.03;;;1.50;;
13795;SDS011;40911;51.552;9.874;2022-09-09T09:05:09;6.28;;;1.38;;
13795;SDS011;40911;51.552;9.874;2022-09-09T09:07:47;4.95;;;1.45;;
13795;SDS011;40911;51.552;9.874;2022-09-09T09:10:23;3.70;;;1.40;;
13795;SDS011;40911;51.552;9.874;2022-09-09T09:12:56;2.35;;;1.30;;
13795;SDS011;40911;51.552;9.874;2022-09-09T09:15:23;4.68;;;1.27;;
13795;SDS011;40911;51.552;9.874;2022-09-09T09:17:47;8.13;;;1.67;;
13795;SDS011;40911;51.552;9.874;2022-09-09T09:20:12;3.58;;;1.60;;
13795;SDS011;40911;51.552;9.874;2022-09-09T09:22:36;4.68;;;1.23;;
13795;SDS011;40911;51.552;9.874;2022-09-09T09:25:08;4.35;;;1.42;;
13795;SDS011;40911;51.552;9.874;2022-09-09T09:27:40;5.57;;;1.70;;
13795;SDS011;40911;51.552;9.874;2022-09-09T09:30:12;6.47;;;1.30;;
13795;SDS011;40911;51.552;9.874;2022-09-09T09:32:36;4.30;;;1.40;;
13795;SDS011;40911;51.552;9.874;2022-09-09T09:35:00;3.67;;;1.48;;
13795;SDS011;40911;51.552;9.874;2022-09-09T09:37:26;4.25;;;1.38;;
13795;SDS011;40911;51.552;9.874;2022-09-09T09:39:51;1.63;;;1.15;;
13795;SDS011;40911;51.552;9.874;2022-09-09T09:42:14;4.47;;;1.30;;
13795;SDS011;40911;51.552;9.874;2022-09-09T09:44:37;3.47;;;1.30;;
13795;SDS011;40911;51.552;9.874;2022-09-09T09:47:07;8.23;;;1.60;;
13795;SDS011;40911;51.552;9.874;2022-09-09T09:49:32;2.67;;;1.10;;
13795;SDS011;40911;51.552;9.874;2022-09-09T09:51:53;3.50;;;1.58;;
13795;SDS011;40911;51.552;9.874;2022-09-09T09:54:22;6.32;;;1.20;;
13795;SDS011;40911;51.552;9.874;2022-09-09T09:56:49;5.18;;;1.52;;
13795;SDS011;40911;51.552;9.874;2022-09-09T09:59:19;6.20;;;1.40;;
13795;SDS011;40911;51.552;9.874;2022-09-09T10:01:53;3.67;;;1.13;;
13795;SDS011;40911;51.552;9.874;2022-09-09T10:04:17;10.98;;;1.40;;
13795;SDS011;40911;51.552;9.874;2022-09-09T10:06:43;3.22;;;1.40;;
13795;SDS011;40911;51.552;9.874;2022-09-09T10:11:43;4.78;;;1.30;;
13795;SDS011;40911;51.552;9.874;2022-09-09T10:14:11;4.60;;;1.27;;
13795;SDS011;40911;51.552;9.874;2022-09-09T10:16:45;2.78;;;1.00;;
13795;SDS011;40911;51.552;9.874;2022-09-09T10:19:17;2.63;;;0.98;;
13795;SDS011;40911;51.552;9.874;2022-09-09T10:21:51;5.18;;;1.10;;
13795;SDS011;40911;51.552;9.874;2022-09-09T10:27:18;3.13;;;1.10;;
13795;SDS011;40911;51.552;9.874;2022-09-09T10:29:49;5.40;;;1.80;;
13795;SDS011;40911;51.552;9.874;2022-09-09T10:32:34;5.57;;;1.33;;
13795;SDS011;40911;51.552;9.874;2022-09-09T10:35:02;3.85;;;1.20;;
13795;SDS011;40911;51.552;9.874;2022-09-09T10:37:38;4.15;;;1.10;;
13795;SDS011;40911;51.552;9.874;2022-09-09T10:40:14;4.32;;;1.10;;
13795;SDS011;40911;51.552;9.874;2022-09-09T10:42:44;5.07;;;1.42;;
13795;SDS011;40911;51.552;9.874;2022-09-09T10:45:10;5.28;;;1.35;;
13795;SDS011;40911;51.552;9.874;2022-09-09T10:47:43;3.85;;;1.10;;
13795;SDS011;40911;51.552;9.874;2022-09-09T10:50:33;4.50;;;1.20;;
13795;SDS011;40911;51.552;9.874;2022-09-09T10:53:07;6.68;;;1.00;;
13795;SDS011;40911;51.552;9.874;2022-09-09T10:55:35;4.10;;;1.17;;
13795;SDS011;40911;51.552;9.874;2022-09-09T10:58:00;3.47;;;1.05;;
13795;SDS011;40911;51.552;9.874;2022-09-09T11:00:27;5.47;;;1.05;;
13795;SDS011;40911;51.552;9.874;2022-09-09T11:03:00;3.22;;;0.98;;
13795;SDS011;40911;51.552;9.874;2022-09-09T11:05:24;3.15;;;1.00;;
13795;SDS011;40911;51.552;9.874;2022-09-09T11:07:54;3.03;;;0.90;;
13795;SDS011;40911;51.552;9.874;2022-09-09T11:10:21;6.45;;;1.00;;
13795;SDS011;40911;51.552;9.874;2022-09-09T11:12:45;3.22;;;0.90;;
13795;SDS011;40911;51.552;9.874;2022-09-09T11:15:13;4.40;;;1.25;;
13795;SDS011;40911;51.552;9.874;2022-09-09T11:17:40;3.03;;;1.02;;
13795;SDS011;40911;51.552;9.874;2022-09-09T11:20:10;2.72;;;0.95;;
13795;SDS011;40911;51.552;9.874;2022-09-09T11:22:34;4.72;;;1.05;;
13795;SDS011;40911;51.552;9.874;2022-09-09T11:25:03;5.53;;;1.30;;
13795;SDS011;40911;51.552;9.874;2022-09-09T11:27:31;4.00;;;1.00;;
13795;SDS011;40911;51.552;9.874;2022-09-09T11:30:04;3.40;;;1.05;;
13795;SDS011;40911;51.552;9.874;2022-09-09T11:32:47;3.45;;;1.00;;
13795;SDS011;40911;51.552;9.874;2022-09-09T11:35:33;4.68;;;1.10;;
13795;SDS011;40911;51.552;9.874;2022-09-09T11:38:09;3.53;;;1.02;;
13795;SDS011;40911;51.552;9.874;2022-09-09T11:40:41;4.80;;;1.00;;
13795;SDS011;40911;51.552;9.874;2022-09-09T11:43:04;6.40;;;1.25;;
13795;SDS011;40911;51.552;9.874;2022-09-09T11:45:30;3.80;;;0.98;;
13795;SDS011;40911;51.552;9.874;2022-09-09T11:47:53;3.50;;;1.05;;
13795;SDS011;40911;51.552;9.874;2022-09-09T11:50:27;3.20;;;0.90;;
13795;SDS011;40911;51.552;9.874;2022-09-09T11:52:51;3.13;;;1.30;;
13795;SDS011;40911;51.552;9.874;2022-09-09T11:55:40;4.40;;;1.00;;
13795;SDS011;40911;51.552;9.874;2022-09-09T11:58:02;2.72;;;0.80;;
13795;SDS011;40911;51.552;9.874;2022-09-09T12:00:33;3.45;;;1.10;;
13795;SDS011;40911;51.552;9.874;2022-09-09T12:02:57;4.75;;;1.00;;
13795;SDS011;40911;51.552;9.874;2022-09-09T12:05:19;3.72;;;1.00;;
13795;SDS011;40911;51.552;9.874;2022-09-09T12:07:45;1.80;;;0.80;;
13795;SDS011;40911;51.552;9.874;2022-09-09T12:10:19;3.28;;;1.00;;
13795;SDS011;40911;51.552;9.874;2022-09-09T12:12:46;4.93;;;0.73;;
13795;SDS011;40911;51.552;9.874;2022-09-09T12:15:20;1.88;;;0.80;;
13795;SDS011;40911;51.552;9.874;2022-09-09T12:17:49;3.03;;;0.95;;
13795;SDS011;40911;51.552;9.874;2022-09-09T12:20:31;3.35;;;0.77;;
13795;SDS011;40911;51.552;9.874;2022-09-09T12:23:02;1.60;;;0.70;;
13795;SDS011;40911;51.552;9.874;2022-09-09T12:25:45;3.33;;;0.90;;
13795;SDS011;40911;51.552;9.874;2022-09-09T12:28:15;1.85;;;0.70;;
13795;SDS011;40911;51.552;9.874;2022-09-09T12:30:43;2.88;;;0.90;;
13795;SDS011;40911;51.552;9.874;2022-09-09T12:33:11;4.60;;;0.90;;
13795;SDS011;40911;51.552;9.874;2022-09-09T12:35:35;5.47;;;0.77;;
13795;SDS011;40911;51.552;9.874;2022-09-09T12:37:59;5.22;;;1.00;;
13795;SDS011;40911;51.552;9.874;2022-09-09T12:40:24;2.95;;;0.70;;
13795;SDS011;40911;51.552;9.874;2022-09-09T12:42:47;3.33;;;0.80;;
13795;SDS011;40911;51.552;9.874;2022-09-09T12:45:16;3.58;;;1.00;;
13795;SDS011;40911;51.552;9.874;2022-09-09T12:47:40;3.22;;;0.85;;
13795;SDS011;40911;51.552;9.874;2022-09-09T12:50:14;3.28;;;0.85;;
13795;SDS011;40911;51.552;9.874;2022-09-09T12:52:38;1.75;;;0.70;;
13795;SDS011;40911;51.552;9.874;2022-09-09T12:55:00;3.40;;;0.90;;
13795;SDS011;40911;51.552;9.874;2022-09-09T12:57:25;7.50;;;1.27;;
13795;SDS011;40911;51.552;9.874;2022-09-09T12:59:50;1.42;;;0.80;;
13795;SDS011;40911;51.552;9.874;2022-09-09T13:02:21;4.93;;;1.00;;
13795;SDS011;40911;51.552;9.874;2022-09-09T13:04:44;3.10;;;0.87;;
13795;SDS011;40911;51.552;9.874;2022-09-09T13:07:07;1.70;;;0.82;;
13795;SDS011;40911;51.552;9.874;2022-09-09T13:09:30;3.50;;;0.93;;
13795;SDS011;40911;51.552;9.874;2022-09-09T13:11:52;2.08;;;0.73;;
13795;SDS011;40911;51.552;9.874;2022-09-09T13:14:18;5.63;;;1.20;;
13795;SDS011;40911;51.552;9.874;2022-09-09T13:16:54;3.83;;;1.10;;
13795;SDS011;40911;51.552;9.874;2022-09-09T13:19:19;2.45;;;0.95;;
13795;SDS011;40911;51.552;9.874;2022-09-09T13:21:41;4.40;;;1.17;;
13795;SDS011;40911;51.552;9.874;2022-09-09T13:24:04;2.75;;;0.82;;
13795;SDS011;40911;51.552;9.874;2022-09-09T13:26:27;2.08;;;1.00;;
13795;SDS011;40911;51.552;9.874;2022-09-09T13:28:50;3.53;;;0.93;;
13795;SDS011;40911;51.552;9.874;2022-09-09T13:31:19;4.30;;;1.02;;
13795;SDS011;40911;51.552;9.874;2022-09-09T13:33:42;4.72;;;0.90;;
13795;SDS011;40911;51.552;9.874;2022-09-09T13:36:06;2.72;;;0.85;;
13795;SDS011;40911;51.552;9.874;2022-09-09T13:38:31;3.08;;;1.10;;
13795;SDS011;40911;51.552;9.874;2022-09-09T13:40:55;4.18;;;1.02;;
13795;SDS011;40911;51.552;9.874;2022-09-09T13:43:22;4.03;;;1.00;;
13795;SDS011;40911;51.552;9.874;2022-09-09T13:45:52;4.78;;;0.93;;
13795;SDS011;40911;51.552;9.874;2022-09-09T13:48:17;1.70;;;1.00;;
13795;SDS011;40911;51.552;9.874;2022-09-09T13:50:39;4.68;;;1.08;;
13795;SDS011;40911;51.552;9.874;2022-09-09T13:53:04;2.88;;;1.00;;
13795;SDS011;40911;51.552;9.874;2022-09-09T13:55:26;2.40;;;0.63;;
13795;SDS011;40911;51.552;9.874;2022-09-09T13:57:52;1.67;;;0.70;;
13795;SDS011;40911;51.552;9.874;2022-09-09T14:00:14;2.50;;;1.02;;
13795;SDS011;40911;51.552;9.874;2022-09-09T14:02:37;3.80;;;0.80;;
13795;SDS011;40911;51.552;9.874;2022-09-09T14:04:59;3.65;;;1.33;;
13795;SDS011;40911;51.552;9.874;2022-09-09T14:07:21;2.85;;;0.90;;
13795;SDS011;40911;51.552;9.874;2022-09-09T14:09:44;3.10;;;0.77;;
13795;SDS011;40911;51.552;9.874;2022-09-09T14:12:10;2.13;;;0.73;;
13795;SDS011;40911;51.552;9.874;2022-09-09T14:14:32;1.38;;;0.75;;
13795;SDS011;40911;51.552;9.874;2022-09-09T14:16:54;3.03;;;0.77;;
13795;SDS011;40911;51.552;9.874;2022-09-09T14:19:16;2.63;;;0.70;;
13795;SDS011;40911;51.552;9.874;2022-09-09T14:21:38;2.65;;;0.75;;
13795;SDS011;40911;51.552;9.874;2022-09-09T14:24:00;1.35;;;0.70;;
13795;SDS011;40911;51.552;9.874;2022-09-09T14:26:23;4.78;;;1.05;;
13795;SDS011;40911;51.552;9.874;2022-09-09T14:28:46;2.63;;;0.80;;
13795;SDS011;40911;51.552;9.874;2022-09-09T14:31:08;4.38;;;0.90;;
13795;SDS011;40911;51.552;9.874;2022-09-09T14:33:30;2.17;;;0.75;;
13795;SDS011;40911;51.552;9.874;2022-09-09T14:35:55;3.95;;;0.80;;
13795;SDS011;40911;51.552;9.874;2022-09-09T14:38:17;1.45;;;0.80;;
13795;SDS011;40911;51.552;9.874;2022-09-09T14:40:38;1.60;;;0.70;;
13795;SDS011;40911;51.552;9.874;2022-09-09T14:43:02;2.97;;;0.88;;
13795;SDS011;40911;51.552;9.874;2022-09-09T14:45:24;3.10;;;0.77;;
13795;SDS011;40911;51.552;9.874;2022-09-09T14:47:46;3.63;;;0.73;;
13795;SDS011;40911;51.552;9.874;2022-09-09T14:50:08;3.22;;;0.75;;
13795;SDS011;40911;51.552;9.874;2022-09-09T14:52:31;2.63;;;0.70;;
13795;SDS011;40911;51.552;9.874;2022-09-09T14:54:53;3.45;;;0.68;;
13795;SDS011;40911;51.552;9.874;2022-09-09T14:57:15;1.77;;;0.60;;
13795;SDS011;40911;51.552;9.874;2022-09-09T14:59:38;2.25;;;0.80;;
13795;SDS011;40911;51.552;9.874;2022-09-09T15:02:00;2.22;;;0.60;;
13795;SDS011;40911;51.552;9.874;2022-09-09T15:04:24;4.60;;;0.65;;
13795;SDS011;40911;51.552;9.874;2022-09-09T15:06:46;2.17;;;0.75;;
13795;SDS011;40911;51.552;9.874;2022-09-09T15:09:08;2.70;;;0.73;;
13795;SDS011;40911;51.552;9.874;2022-09-09T15:11:30;6.45;;;1.00;;
13795;SDS011;40911;51.552;9.874;2022-09-09T15:13:57;4.82;;;0.82;;
13795;SDS011;40911;51.552;9.874;2022-09-09T15:16:21;1.80;;;0.80;;
13795;SDS011;40911;51.552;9.874;2022-09-09T15:18:45;1.50;;;0.60;;
13795;SDS011;40911;51.552;9.874;2022-09-09T15:21:08;2.88;;;0.70;;
13795;SDS011;40911;51.552;9.874;2022-09-09T15:23:31;2.10;;;0.60;;
13795;SDS011;40911;51.552;9.874;2022-09-09T15:25:53;2.28;;;0.80;;
13795;SDS011;40911;51.552;9.874;2022-09-09T15:28:15;1.52;;;0.70;;
13795;SDS011;40911;51.552;9.874;2022-09-09T15:30:37;2.95;;;0.93;;
13795;SDS011;40911;51.552;9.874;2022-09-09T15:33:00;3.08;;;0.90;;
13795;SDS011;40911;51.552;9.874;2022-09-09T15:35:22;3.58;;;0.70;;
13795;SDS011;40911;51.552;9.874;2022-09-09T15:37:44;2.50;;;0.77;;
13795;SDS011;40911;51.552;9.874;2022-09-09T15:40:06;4.32;;;0.77;;
13795;SDS011;40911;51.552;9.874;2022-09-09T15:42:29;5.40;;;0.75;;
13795;SDS011;40911;51.552;9.874;2022-09-09T15:44:51;2.75;;;0.93;;